Metar z pełnej godziny Komunikat METAR ze strony awiacja.imgw.pl Metar G00 EPPO METAR EPPO 190200Z 21004KT CAVOK 17/12 Q1019 =